sensor_id;sensor_type;location;lat;lon;timestamp;pressure;altitude;pressure_sealevel;temperature;humidity
17785;BME280;9016;53.582;10.062;2023-06-10T00:00:04;101797.38;;;17.09;79.33
17785;BME280;9016;53.582;10.062;2023-06-10T00:02:33;101798.03;;;17.00;79.37
17785;BME280;9016;53.582;10.062;2023-06-10T00:05:04;101802.00;;;16.94;79.99
17785;BME280;9016;53.582;10.062;2023-06-10T00:07:32;101801.13;;;16.94;79.19
17785;BME280;9016;53.582;10.062;2023-06-10T00:10:05;101797.91;;;16.89;79.67
17785;BME280;9016;53.582;10.062;2023-06-10T00:12:33;101796.41;;;16.84;79.24
17785;BME280;9016;53.582;10.062;2023-06-10T00:15:06;101800.25;;;16.80;79.45
17785;BME280;9016;53.582;10.062;2023-06-10T00:17:35;101800.59;;;16.76;79.00
17785;BME280;9016;53.582;10.062;2023-06-10T00:20:09;101799.63;;;16.77;78.92
17785;BME280;9016;53.582;10.062;2023-06-10T00:22:39;101809.50;;;16.64;79.75
17785;BME280;9016;53.582;10.062;2023-06-10T00:25:09;101812.53;;;16.59;79.13
17785;BME280;9016;53.582;10.062;2023-06-10T00:27:38;101801.22;;;16.54;78.65
17785;BME280;9016;53.582;10.062;2023-06-10T00:30:07;101797.13;;;16.61;78.14
17785;BME280;9016;53.582;10.062;2023-06-10T00:32:36;101802.38;;;16.50;78.73
17785;BME280;9016;53.582;10.062;2023-06-10T00:35:05;101802.75;;;16.44;78.43
17785;BME280;9016;53.582;10.062;2023-06-10T00:37:35;101795.22;;;16.37;78.31
17785;BME280;9016;53.582;10.062;2023-06-10T00:40:05;101800.03;;;16.32;78.10
17785;BME280;9016;53.582;10.062;2023-06-10T00:42:35;101807.91;;;16.35;77.20
17785;BME280;9016;53.582;10.062;2023-06-10T00:45:04;101805.81;;;16.26;77.53
17785;BME280;9016;53.582;10.062;2023-06-10T00:47:34;101802.53;;;16.35;77.39
17785;BME280;9016;53.582;10.062;2023-06-10T00:50:03;101799.56;;;16.25;77.43
17785;BME280;9016;53.582;10.062;2023-06-10T00:52:32;101805.38;;;16.19;77.30
17785;BME280;9016;53.582;10.062;2023-06-10T00:55:02;101805.28;;;16.21;77.22
17785;BME280;9016;53.582;10.062;2023-06-10T00:57:31;101806.22;;;16.20;77.32
17785;BME280;9016;53.582;10.062;2023-06-10T00:59:59;101808.06;;;16.19;76.73
17785;BME280;9016;53.582;10.062;2023-06-10T01:02:27;101818.06;;;16.17;76.71
17785;BME280;9016;53.582;10.062;2023-06-10T01:04:55;101819.59;;;16.21;76.73
17785;BME280;9016;53.582;10.062;2023-06-10T01:07:26;101816.03;;;16.21;76.78
17785;BME280;9016;53.582;10.062;2023-06-10T01:10:01;101806.22;;;16.20;76.95
17785;BME280;9016;53.582;10.062;2023-06-10T01:12:36;101811.06;;;16.15;76.34
17785;BME280;9016;53.582;10.062;2023-06-10T01:15:08;101816.75;;;16.10;76.37
17785;BME280;9016;53.582;10.062;2023-06-10T01:17:54;101818.31;;;16.00;77.25
17785;BME280;9016;53.582;10.062;2023-06-10T01:20:22;101811.88;;;16.03;76.20
17785;BME280;9016;53.582;10.062;2023-06-10T01:22:52;101825.22;;;16.04;76.94
17785;BME280;9016;53.582;10.062;2023-06-10T01:25:21;101813.03;;;15.99;76.45
17785;BME280;9016;53.582;10.062;2023-06-10T01:27:58;101819.06;;;16.02;76.49
17785;BME280;9016;53.582;10.062;2023-06-10T01:30:33;101819.78;;;15.92;76.96
17785;BME280;9016;53.582;10.062;2023-06-10T01:33:07;101823.13;;;15.95;76.62
17785;BME280;9016;53.582;10.062;2023-06-10T01:35:37;101826.97;;;15.91;76.61
17785;BME280;9016;53.582;10.062;2023-06-10T01:38:08;101826.50;;;15.84;76.68
17785;BME280;9016;53.582;10.062;2023-06-10T01:40:36;101827.84;;;15.92;75.96
17785;BME280;9016;53.582;10.062;2023-06-10T01:43:05;101812.22;;;15.70;76.86
17785;BME280;9016;53.582;10.062;2023-06-10T01:45:33;101824.41;;;15.75;77.46
17785;BME280;9016;53.582;10.062;2023-06-10T01:48:01;101818.97;;;15.77;76.80
17785;BME280;9016;53.582;10.062;2023-06-10T01:50:30;101825.75;;;15.82;76.36
17785;BME280;9016;53.582;10.062;2023-06-10T01:53:00;101819.53;;;15.82;76.50
17785;BME280;9016;53.582;10.062;2023-06-10T01:55:29;101817.88;;;15.79;75.88
17785;BME280;9016;53.582;10.062;2023-06-10T01:57:57;101820.88;;;15.75;76.16
17785;BME280;9016;53.582;10.062;2023-06-10T02:00:25;101816.44;;;15.74;75.98
17785;BME280;9016;53.582;10.062;2023-06-10T02:02:53;101812.59;;;15.78;75.75
17785;BME280;9016;53.582;10.062;2023-06-10T02:05:22;101815.69;;;15.72;75.67
17785;BME280;9016;53.582;10.062;2023-06-10T02:07:50;101810.81;;;15.64;76.49
17785;BME280;9016;53.582;10.062;2023-06-10T02:10:18;101813.59;;;15.63;76.20
17785;BME280;9016;53.582;10.062;2023-06-10T02:12:47;101807.16;;;15.65;75.74
17785;BME280;9016;53.582;10.062;2023-06-10T02:15:15;101800.94;;;15.65;75.87
17785;BME280;9016;53.582;10.062;2023-06-10T02:17:43;101808.78;;;15.68;75.46
17785;BME280;9016;53.582;10.062;2023-06-10T02:20:12;101812.44;;;15.67;75.47
17785;BME280;9016;53.582;10.062;2023-06-10T02:22:41;101811.56;;;15.66;75.49
17785;BME280;9016;53.582;10.062;2023-06-10T02:25:09;101814.34;;;15.65;75.56
17785;BME280;9016;53.582;10.062;2023-06-10T02:27:37;101806.09;;;15.68;75.31
17785;BME280;9016;53.582;10.062;2023-06-10T02:30:08;101809.84;;;15.65;75.32
17785;BME280;9016;53.582;10.062;2023-06-10T02:32:37;101809.38;;;15.59;75.62
17785;BME280;9016;53.582;10.062;2023-06-10T02:35:05;101812.22;;;15.70;75.14
17785;BME280;9016;53.582;10.062;2023-06-10T02:37:34;101811.56;;;15.66;74.37
17785;BME280;9016;53.582;10.062;2023-06-10T02:40:03;101814.75;;;15.59;74.85
17785;BME280;9016;53.582;10.062;2023-06-10T02:42:32;101809.38;;;15.59;75.00
17785;BME280;9016;53.582;10.062;2023-06-10T02:45:00;101812.00;;;15.60;75.04
17785;BME280;9016;53.582;10.062;2023-06-10T02:47:29;101820.78;;;15.62;74.74
17785;BME280;9016;53.582;10.062;2023-06-10T02:49:57;101816.19;;;15.64;74.69
17785;BME280;9016;53.582;10.062;2023-06-10T02:52:26;101815.81;;;15.56;75.37
17785;BME280;9016;53.582;10.062;2023-06-10T02:54:54;101821.19;;;15.42;76.05
17785;BME280;9016;53.582;10.062;2023-06-10T02:57:22;101812.09;;;15.45;75.97
17785;BME280;9016;53.582;10.062;2023-06-10T02:59:50;101816.97;;;15.52;75.60
17785;BME280;9016;53.582;10.062;2023-06-10T03:02:20;101821.38;;;15.53;75.28
17785;BME280;9016;53.582;10.062;2023-06-10T03:04:49;101825.59;;;15.57;75.56
17785;BME280;9016;53.582;10.062;2023-06-10T03:07:17;101825.50;;;15.59;75.17
17785;BME280;9016;53.582;10.062;2023-06-10T03:09:47;101828.56;;;15.67;74.45
17785;BME280;9016;53.582;10.062;2023-06-10T03:12:15;101826.25;;;15.61;74.94
17785;BME280;9016;53.582;10.062;2023-06-10T03:14:43;101825.69;;;15.56;75.52
17785;BME280;9016;53.582;10.062;2023-06-10T03:17:11;101831.44;;;15.50;74.89
17785;BME280;9016;53.582;10.062;2023-06-10T03:19:39;101831.94;;;15.56;75.23
17785;BME280;9016;53.582;10.062;2023-06-10T03:22:11;101830.50;;;15.51;75.46
17785;BME280;9016;53.582;10.062;2023-06-10T03:24:39;101830.09;;;15.57;75.04
17785;BME280;9016;53.582;10.062;2023-06-10T03:27:08;101827.41;;;15.57;75.02
17785;BME280;9016;53.582;10.062;2023-06-10T03:29:37;101826.91;;;15.64;74.94
17785;BME280;9016;53.582;10.062;2023-06-10T03:32:06;101830.47;;;15.65;74.85
17785;BME280;9016;53.582;10.062;2023-06-10T03:34:34;101822.41;;;15.65;74.78
17785;BME280;9016;53.582;10.062;2023-06-10T03:37:02;101831.06;;;15.56;75.17
17785;BME280;9016;53.582;10.062;2023-06-10T03:39:32;101830.19;;;15.55;75.84
17785;BME280;9016;53.582;10.062;2023-06-10T03:42:01;101825.09;;;15.65;74.77
17785;BME280;9016;53.582;10.062;2023-06-10T03:44:29;101824.91;;;15.68;74.74
17785;BME280;9016;53.582;10.062;2023-06-10T03:46:57;101830.88;;;15.73;74.49
17785;BME280;9016;53.582;10.062;2023-06-10T03:49:26;101831.34;;;15.65;74.91
17785;BME280;9016;53.582;10.062;2023-06-10T03:51:56;101835.47;;;15.71;74.67
17785;BME280;9016;53.582;10.062;2023-06-10T03:54:24;101833.06;;;15.66;75.13
17785;BME280;9016;53.582;10.062;2023-06-10T03:56:53;101830.09;;;15.71;75.18
17785;BME280;9016;53.582;10.062;2023-06-10T03:59:21;101831.63;;;15.75;74.98
17785;BME280;9016;53.582;10.062;2023-06-10T04:01:50;101826.44;;;15.72;75.19
17785;BME280;9016;53.582;10.062;2023-06-10T04:04:18;101832.69;;;15.72;75.30
17785;BME280;9016;53.582;10.062;2023-06-10T04:06:45;101832.03;;;15.69;75.08
17785;BME280;9016;53.582;10.062;2023-06-10T04:09:14;101832.09;;;15.81;75.09
17785;BME280;9016;53.582;10.062;2023-06-10T04:11:42;101836.09;;;15.88;74.40
17785;BME280;9016;53.582;10.062;2023-06-10T04:14:12;101836.69;;;15.94;74.32
17785;BME280;9016;53.582;10.062;2023-06-10T04:16:40;101831.75;;;16.00;74.28
17785;BME280;9016;53.582;10.062;2023-06-10T04:19:09;101826.81;;;16.07;73.76
17785;BME280;9016;53.582;10.062;2023-06-10T04:21:37;101823.47;;;16.03;73.61
17785;BME280;9016;53.582;10.062;2023-06-10T04:24:06;101828.47;;;16.09;73.67
17785;BME280;9016;53.582;10.062;2023-06-10T04:26:35;101824.47;;;16.02;73.88
17785;BME280;9016;53.582;10.062;2023-06-10T04:29:03;101830.03;;;15.99;74.07
17785;BME280;9016;53.582;10.062;2023-06-10T04:31:33;101838.28;;;15.96;73.99
17785;BME280;9016;53.582;10.062;2023-06-10T04:34:01;101828.56;;;16.08;74.34
17785;BME280;9016;53.582;10.062;2023-06-10T04:36:29;101827.03;;;16.04;74.45
17785;BME280;9016;53.582;10.062;2023-06-10T04:38:57;101825.31;;;16.03;74.08
17785;BME280;9016;53.582;10.062;2023-06-10T04:41:25;101821.44;;;16.07;74.49
17785;BME280;9016;53.582;10.062;2023-06-10T04:43:53;101817.63;;;16.23;73.78
17785;BME280;9016;53.582;10.062;2023-06-10T04:46:21;101830.50;;;16.32;73.21
17785;BME280;9016;53.582;10.062;2023-06-10T04:48:51;101821.59;;;16.44;73.59
17785;BME280;9016;53.582;10.062;2023-06-10T04:51:21;101819.06;;;16.55;72.75
17785;BME280;9016;53.582;10.062;2023-06-10T04:53:49;101819.09;;;16.68;72.26
17785;BME280;9016;53.582;10.062;2023-06-10T04:56:17;101820.50;;;16.61;72.21
17785;BME280;9016;53.582;10.062;2023-06-10T04:58:45;101826.28;;;16.67;72.28
17785;BME280;9016;53.582;10.062;2023-06-10T05:01:16;101826.53;;;16.77;72.12
17785;BME280;9016;53.582;10.062;2023-06-10T05:03:44;101824.28;;;16.71;72.24
17785;BME280;9016;53.582;10.062;2023-06-10T05:06:14;101820.09;;;16.79;72.16
17785;BME280;9016;53.582;10.062;2023-06-10T05:08:42;101825.69;;;16.76;71.79
17785;BME280;9016;53.582;10.062;2023-06-10T05:11:10;101823.44;;;16.83;72.08
17785;BME280;9016;53.582;10.062;2023-06-10T05:13:41;101824.31;;;16.83;72.12
17785;BME280;9016;53.582;10.062;2023-06-10T05:16:09;101831.19;;;16.88;71.40
17785;BME280;9016;53.582;10.062;2023-06-10T05:18:37;101835.50;;;17.03;70.99
17785;BME280;9016;53.582;10.062;2023-06-10T05:21:05;101823.78;;;17.16;70.61
17785;BME280;9016;53.582;10.062;2023-06-10T05:23:35;101827.53;;;17.14;70.37
17785;BME280;9016;53.582;10.062;2023-06-10T05:26:03;101823.56;;;17.07;71.06
17785;BME280;9016;53.582;10.062;2023-06-10T05:28:31;101828.06;;;17.06;70.82
17785;BME280;9016;53.582;10.062;2023-06-10T05:30:59;101826.69;;;17.13;70.99
17785;BME280;9016;53.582;10.062;2023-06-10T05:33:27;101831.31;;;17.36;69.80
17785;BME280;9016;53.582;10.062;2023-06-10T05:35:56;101835.00;;;17.35;69.92
17785;BME280;9016;53.582;10.062;2023-06-10T05:38:24;101823.44;;;17.33;69.78
17785;BME280;9016;53.582;10.062;2023-06-10T05:40:54;101827.78;;;17.48;69.36
17785;BME280;9016;53.582;10.062;2023-06-10T05:43:23;101829.94;;;17.56;68.68
17785;BME280;9016;53.582;10.062;2023-06-10T05:45:51;101827.59;;;17.75;68.29
17785;BME280;9016;53.582;10.062;2023-06-10T05:48:20;101822.72;;;17.80;68.05
17785;BME280;9016;53.582;10.062;2023-06-10T05:50:48;101821.53;;;17.84;67.77
17785;BME280;9016;53.582;10.062;2023-06-10T05:53:17;101823.34;;;17.96;67.53
17785;BME280;9016;53.582;10.062;2023-06-10T05:55:45;101814.13;;;18.11;66.98
17785;BME280;9016;53.582;10.062;2023-06-10T05:58:15;101820.16;;;18.15;66.43
17785;BME280;9016;53.582;10.062;2023-06-10T06:00:43;101815.09;;;18.10;67.13
17785;BME280;9016;53.582;10.062;2023-06-10T06:03:11;101822.38;;;18.21;66.28
17785;BME280;9016;53.582;10.062;2023-06-10T06:05:43;101823.75;;;18.26;66.18
17785;BME280;9016;53.582;10.062;2023-06-10T06:08:12;101820.97;;;18.28;66.32
17785;BME280;9016;53.582;10.062;2023-06-10T06:10:44;101809.31;;;18.51;65.24
17785;BME280;9016;53.582;10.062;2023-06-10T06:13:15;101815.19;;;18.56;65.09
17785;BME280;9016;53.582;10.062;2023-06-10T06:15:44;101814.06;;;18.47;65.13
17785;BME280;9016;53.582;10.062;2023-06-10T06:18:12;101804.56;;;18.65;64.78
17785;BME280;9016;53.582;10.062;2023-06-10T06:20:41;101810.63;;;18.91;63.53
17785;BME280;9016;53.582;10.062;2023-06-10T06:23:09;101798.72;;;20.47;59.56
17785;BME280;9016;53.582;10.062;2023-06-10T06:25:40;101805.88;;;22.19;53.10
17785;BME280;9016;53.582;10.062;2023-06-10T06:28:09;101801.09;;;23.36;48.19
17785;BME280;9016;53.582;10.062;2023-06-10T06:30:39;101789.59;;;24.59;45.67
17785;BME280;9016;53.582;10.062;2023-06-10T06:33:07;101799.38;;;25.64;42.66
17785;BME280;9016;53.582;10.062;2023-06-10T06:35:35;101798.56;;;26.13;42.00
17785;BME280;9016;53.582;10.062;2023-06-10T06:38:04;101793.13;;;26.53;41.21
17785;BME280;9016;53.582;10.062;2023-06-10T06:40:32;101793.78;;;27.27;38.43
17785;BME280;9016;53.582;10.062;2023-06-10T06:43:01;101796.97;;;28.02;38.23
17785;BME280;9016;53.582;10.062;2023-06-10T06:45:29;101804.16;;;28.03;36.77
17785;BME280;9016;53.582;10.062;2023-06-10T06:47:58;101795.75;;;28.58;35.52
17785;BME280;9016;53.582;10.062;2023-06-10T06:50:26;101794.75;;;28.96;35.29
17785;BME280;9016;53.582;10.062;2023-06-10T06:52:54;101794.22;;;29.15;35.13
17785;BME280;9016;53.582;10.062;2023-06-10T06:55:23;101790.47;;;29.16;35.26
17785;BME280;9016;53.582;10.062;2023-06-10T06:57:51;101798.22;;;29.27;34.80
17785;BME280;9016;53.582;10.062;2023-06-10T07:00:19;101800.22;;;29.62;34.24
17785;BME280;9016;53.582;10.062;2023-06-10T07:02:48;101799.44;;;30.33;33.21
17785;BME280;9016;53.582;10.062;2023-06-10T07:05:17;101797.69;;;30.11;32.42
17785;BME280;9016;53.582;10.062;2023-06-10T07:07:45;101803.16;;;29.90;33.45
17785;BME280;9016;53.582;10.062;2023-06-10T07:10:13;101800.25;;;30.48;33.29
17785;BME280;9016;53.582;10.062;2023-06-10T07:12:42;101803.84;;;30.91;31.72
17785;BME280;9016;53.582;10.062;2023-06-10T07:15:10;101802.63;;;31.21;31.08
17785;BME280;9016;53.582;10.062;2023-06-10T07:17:38;101811.78;;;31.62;30.65
17785;BME280;9016;53.582;10.062;2023-06-10T07:20:07;101817.09;;;31.64;30.14
17785;BME280;9016;53.582;10.062;2023-06-10T07:22:37;101811.97;;;32.49;29.81
17785;BME280;9016;53.582;10.062;2023-06-10T07:25:07;101815.63;;;31.61;30.48
17785;BME280;9016;53.582;10.062;2023-06-10T07:27:36;101816.56;;;31.81;30.14
17785;BME280;9016;53.582;10.062;2023-06-10T07:30:06;101809.81;;;31.50;30.44
17785;BME280;9016;53.582;10.062;2023-06-10T07:32:35;101819.66;;;31.99;29.63
17785;BME280;9016;53.582;10.062;2023-06-10T07:35:05;101814.53;;;31.56;31.15
17785;BME280;9016;53.582;10.062;2023-06-10T07:37:34;101817.59;;;31.80;30.37
17785;BME280;9016;53.582;10.062;2023-06-10T07:40:04;101805.00;;;32.66;29.50
17785;BME280;9016;53.582;10.062;2023-06-10T07:42:35;101805.84;;;33.38;28.00
17785;BME280;9016;53.582;10.062;2023-06-10T07:45:04;101812.22;;;33.39;28.74
17785;BME280;9016;53.582;10.062;2023-06-10T07:47:33;101817.50;;;32.62;28.78
17785;BME280;9016;53.582;10.062;2023-06-10T07:50:02;101810.94;;;32.63;29.28
17785;BME280;9016;53.582;10.062;2023-06-10T07:52:30;101808.59;;;33.51;28.01
17785;BME280;9016;53.582;10.062;2023-06-10T07:54:58;101807.91;;;33.69;27.45
17785;BME280;9016;53.582;10.062;2023-06-10T07:57:28;101807.81;;;34.39;27.10
17785;BME280;9016;53.582;10.062;2023-06-10T07:59:58;101807.53;;;33.52;27.77
17785;BME280;9016;53.582;10.062;2023-06-10T08:02:26;101790.13;;;33.45;28.08
17785;BME280;9016;53.582;10.062;2023-06-10T08:04:55;101805.31;;;33.74;27.73
17785;BME280;9016;53.582;10.062;2023-06-10T08:07:23;101800.59;;;33.87;27.43
17785;BME280;9016;53.582;10.062;2023-06-10T08:09:52;101803.97;;;34.03;27.59
17785;BME280;9016;53.582;10.062;2023-06-10T08:12:20;101803.63;;;34.24;27.31
17785;BME280;9016;53.582;10.062;2023-06-10T08:14:49;101811.78;;;33.48;27.74
17785;BME280;9016;53.582;10.062;2023-06-10T08:17:18;101811.84;;;34.74;27.00
17785;BME280;9016;53.582;10.062;2023-06-10T08:19:45;101812.69;;;35.06;26.01
17785;BME280;9016;53.582;10.062;2023-06-10T08:22:14;101807.16;;;34.44;26.48
17785;BME280;9016;53.582;10.062;2023-06-10T08:24:42;101814.44;;;34.32;26.91
17785;BME280;9016;53.582;10.062;2023-06-10T08:27:13;101814.41;;;34.76;26.42
17785;BME280;9016;53.582;10.062;2023-06-10T08:29:41;101814.09;;;34.22;26.84
17785;BME280;9016;53.582;10.062;2023-06-10T08:32:10;101810.66;;;32.38;28.80
17785;BME280;9016;53.582;10.062;2023-06-10T08:34:39;101808.44;;;32.94;28.72
17785;BME280;9016;53.582;10.062;2023-06-10T08:37:07;101813.44;;;33.75;27.87
17785;BME280;9016;53.582;10.062;2023-06-10T08:39:35;101818.16;;;33.36;28.00
17785;BME280;9016;53.582;10.062;2023-06-10T08:42:11;101810.97;;;33.22;28.23
17785;BME280;9016;53.582;10.062;2023-06-10T08:44:40;101811.16;;;33.46;28.15
17785;BME280;9016;53.582;10.062;2023-06-10T08:47:13;101812.66;;;32.83;28.96
17785;BME280;9016;53.582;10.062;2023-06-10T08:49:44;101809.13;;;33.86;28.02
17785;BME280;9016;53.582;10.062;2023-06-10T08:52:15;101804.97;;;34.83;26.64
17785;BME280;9016;53.582;10.062;2023-06-10T08:54:47;101808.69;;;34.71;26.57
17785;BME280;9016;53.582;10.062;2023-06-10T08:57:17;101803.53;;;34.43;27.04
17785;BME280;9016;53.582;10.062;2023-06-10T08:59:47;101809.66;;;34.52;27.32
17785;BME280;9016;53.582;10.062;2023-06-10T09:02:17;101802.78;;;35.59;25.92
17785;BME280;9016;53.582;10.062;2023-06-10T09:04:47;101796.25;;;34.80;26.89
17785;BME280;9016;53.582;10.062;2023-06-10T09:07:16;101796.97;;;35.00;26.31
17785;BME280;9016;53.582;10.062;2023-06-10T09:09:45;101794.03;;;36.10;25.59
17785;BME280;9016;53.582;10.062;2023-06-10T09:12:14;101790.47;;;36.39;24.76
17785;BME280;9016;53.582;10.062;2023-06-10T09:14:42;101791.28;;;36.81;24.44
17785;BME280;9016;53.582;10.062;2023-06-10T09:17:10;101797.28;;;36.07;25.00
17785;BME280;9016;53.582;10.062;2023-06-10T09:19:41;101797.31;;;35.10;26.36
17785;BME280;9016;53.582;10.062;2023-06-10T09:22:10;101793.22;;;35.73;25.77
17785;BME280;9016;53.582;10.062;2023-06-10T09:24:38;101795.56;;;36.24;25.60
17785;BME280;9016;53.582;10.062;2023-06-10T09:27:08;101792.22;;;36.04;25.44
17785;BME280;9016;53.582;10.062;2023-06-10T09:29:46;101795.16;;;35.73;25.61
17785;BME280;9016;53.582;10.062;2023-06-10T09:32:17;101792.06;;;36.47;25.29
17785;BME280;9016;53.582;10.062;2023-06-10T09:34:47;101787.63;;;35.37;25.94
17785;BME280;9016;53.582;10.062;2023-06-10T09:37:20;101786.22;;;35.10;26.43
17785;BME280;9016;53.582;10.062;2023-06-10T09:40:02;101780.97;;;34.40;27.44
17785;BME280;9016;53.582;10.062;2023-06-10T09:42:35;101780.44;;;33.74;28.29
17785;BME280;9016;53.582;10.062;2023-06-10T09:45:05;101780.38;;;33.10;29.08
17785;BME280;9016;53.582;10.062;2023-06-10T09:47:34;101779.94;;;32.87;29.43
17785;BME280;9016;53.582;10.062;2023-06-10T09:50:05;101787.31;;;32.41;30.33
17785;BME280;9016;53.582;10.062;2023-06-10T09:52:37;101785.97;;;31.70;31.53
17785;BME280;9016;53.582;10.062;2023-06-10T09:55:08;101787.78;;;31.56;31.41
17785;BME280;9016;53.582;10.062;2023-06-10T09:57:36;101777.69;;;30.80;33.12
17785;BME280;9016;53.582;10.062;2023-06-10T10:00:07;101788.53;;;30.82;33.01
17785;BME280;9016;53.582;10.062;2023-06-10T10:02:44;101788.66;;;30.32;33.81
17785;BME280;9016;53.582;10.062;2023-06-10T10:05:14;101789.03;;;30.50;33.80
17785;BME280;9016;53.582;10.062;2023-06-10T10:07:44;101788.38;;;30.48;34.22
17785;BME280;9016;53.582;10.062;2023-06-10T10:10:13;101786.09;;;30.30;33.92
17785;BME280;9016;53.582;10.062;2023-06-10T10:12:42;101789.00;;;30.43;33.96
17785;BME280;9016;53.582;10.062;2023-06-10T10:15:11;101793.03;;;30.26;34.28
17785;BME280;9016;53.582;10.062;2023-06-10T10:17:49;101789.50;;;30.53;34.83
17785;BME280;9016;53.582;10.062;2023-06-10T10:20:26;101784.72;;;30.62;34.32
17785;BME280;9016;53.582;10.062;2023-06-10T10:22:57;101795.25;;;30.37;34.68
17785;BME280;9016;53.582;10.062;2023-06-10T10:25:29;101796.69;;;29.83;35.64
17785;BME280;9016;53.582;10.062;2023-06-10T10:28:04;101785.19;;;30.08;35.43
17785;BME280;9016;53.582;10.062;2023-06-10T10:30:39;101784.53;;;30.06;35.08
17785;BME280;9016;53.582;10.062;2023-06-10T10:33:12;101783.44;;;30.22;35.25
17785;BME280;9016;53.582;10.062;2023-06-10T10:35:42;101781.72;;;30.36;35.30
17785;BME280;9016;53.582;10.062;2023-06-10T10:38:12;101783.34;;;30.30;34.75
17785;BME280;9016;53.582;10.062;2023-06-10T10:40:41;101778.91;;;30.14;35.20
17785;BME280;9016;53.582;10.062;2023-06-10T10:43:12;101771.44;;;29.73;35.64
17785;BME280;9016;53.582;10.062;2023-06-10T10:45:40;101780.38;;;29.96;35.79
17785;BME280;9016;53.582;10.062;2023-06-10T10:48:08;101785.50;;;29.99;35.84
17785;BME280;9016;53.582;10.062;2023-06-10T10:50:39;101773.78;;;29.76;35.97
17785;BME280;9016;53.582;10.062;2023-06-10T10:53:09;101783.56;;;29.35;37.59
17785;BME280;9016;53.582;10.062;2023-06-10T10:55:37;101778.59;;;29.59;37.00
17785;BME280;9016;53.582;10.062;2023-06-10T10:58:07;101774.72;;;29.39;37.14
17785;BME280;9016;53.582;10.062;2023-06-10T11:00:44;101777.09;;;29.27;36.94
17785;BME280;9016;53.582;10.062;2023-06-10T11:03:14;101768.50;;;29.31;37.16
17785;BME280;9016;53.582;10.062;2023-06-10T11:05:44;101775.00;;;28.78;38.14
17785;BME280;9016;53.582;10.062;2023-06-10T11:08:45;101771.50;;;29.21;37.96
17785;BME280;9016;53.582;10.062;2023-06-10T11:11:18;101773.59;;;29.19;37.78
17785;BME280;9016;53.582;10.062;2023-06-10T11:14:07;101772.47;;;29.28;37.90
17785;BME280;9016;53.582;10.062;2023-06-10T11:16:40;101770.47;;;29.22;38.11
17785;BME280;9016;53.582;10.062;2023-06-10T11:19:09;101771.41;;;28.77;38.80
17785;BME280;9016;53.582;10.062;2023-06-10T11:21:59;101766.97;;;28.76;39.10
17785;BME280;9016;53.582;10.062;2023-06-10T11:24:29;101763.94;;;28.71;39.34
17785;BME280;9016;53.582;10.062;2023-06-10T11:27:17;101761.94;;;28.80;39.61
17785;BME280;9016;53.582;10.062;2023-06-10T11:30:18;101766.47;;;28.73;39.67
17785;BME280;9016;53.582;10.062;2023-06-10T11:32:51;101773.63;;;28.59;40.24
17785;BME280;9016;53.582;10.062;2023-06-10T11:35:23;101762.56;;;28.45;40.40
17785;BME280;9016;53.582;10.062;2023-06-10T11:37:54;101765.06;;;28.31;40.90
17785;BME280;9016;53.582;10.062;2023-06-10T11:40:22;101765.75;;;28.11;41.25
17785;BME280;9016;53.582;10.062;2023-06-10T11:42:50;101761.00;;;28.27;41.14
17785;BME280;9016;53.582;10.062;2023-06-10T11:45:18;101765.50;;;28.43;41.30
17785;BME280;9016;53.582;10.062;2023-06-10T11:47:58;101768.31;;;28.35;41.17
17785;BME280;9016;53.582;10.062;2023-06-10T11:50:31;101764.88;;;28.10;41.98
17785;BME280;9016;53.582;10.062;2023-06-10T11:53:01;101749.41;;;27.87;42.27
17785;BME280;9016;53.582;10.062;2023-06-10T11:55:41;101752.44;;;28.22;41.93
17785;BME280;9016;53.582;10.062;2023-06-10T11:58:13;101753.69;;;28.20;41.96
17785;BME280;9016;53.582;10.062;2023-06-10T12:00:46;101756.09;;;28.15;41.98
17785;BME280;9016;53.582;10.062;2023-06-10T12:03:14;101751.78;;;27.90;42.60
17785;BME280;9016;53.582;10.062;2023-06-10T12:05:55;101754.53;;;27.90;42.68
17785;BME280;9016;53.582;10.062;2023-06-10T12:08:24;101753.16;;;27.86;42.06
17785;BME280;9016;53.582;10.062;2023-06-10T12:10:54;101761.22;;;27.49;42.39
17785;BME280;9016;53.582;10.062;2023-06-10T12:13:22;101759.81;;;27.61;42.45
17785;BME280;9016;53.582;10.062;2023-06-10T12:15:50;101761.56;;;27.84;42.12
17785;BME280;9016;53.582;10.062;2023-06-10T12:18:19;101753.72;;;27.81;41.75
17785;BME280;9016;53.582;10.062;2023-06-10T12:20:47;101750.25;;;27.87;41.49
17785;BME280;9016;53.582;10.062;2023-06-10T12:23:18;101754.03;;;27.56;42.69
17785;BME280;9016;53.582;10.062;2023-06-10T12:25:51;101748.06;;;27.83;42.33
17785;BME280;9016;53.582;10.062;2023-06-10T12:28:21;101738.94;;;27.90;42.10
17785;BME280;9016;53.582;10.062;2023-06-10T12:30:51;101734.16;;;28.15;41.50
17785;BME280;9016;53.582;10.062;2023-06-10T12:33:34;101732.84;;;28.11;41.77
17785;BME280;9016;53.582;10.062;2023-06-10T12:36:02;101726.75;;;28.23;41.53
17785;BME280;9016;53.582;10.062;2023-06-10T12:38:31;101726.38;;;28.26;41.48
17785;BME280;9016;53.582;10.062;2023-06-10T12:41:02;101729.41;;;28.31;41.87
17785;BME280;9016;53.582;10.062;2023-06-10T12:43:31;101722.56;;;28.50;41.32
17785;BME280;9016;53.582;10.062;2023-06-10T12:46:09;101718.34;;;28.48;41.10
17785;BME280;9016;53.582;10.062;2023-06-10T12:48:49;101717.66;;;28.23;41.32
17785;BME280;9016;53.582;10.062;2023-06-10T12:51:18;101707.19;;;28.26;41.27
17785;BME280;9016;53.582;10.062;2023-06-10T12:53:46;101709.75;;;28.28;41.19
17785;BME280;9016;53.582;10.062;2023-06-10T12:56:15;101708.75;;;28.44;40.96
17785;BME280;9016;53.582;10.062;2023-06-10T12:58:43;101705.41;;;28.56;40.79
17785;BME280;9016;53.582;10.062;2023-06-10T13:01:12;101708.28;;;28.40;40.80
17785;BME280;9016;53.582;10.062;2023-06-10T13:03:40;101707.78;;;28.59;41.07